createdAt,value
2024-01-30T00:00:15.359Z,52.74
2024-01-30T00:01:14.882Z,51.89
2024-01-30T00:02:14.839Z,51.70
2024-01-30T00:03:14.821Z,53.60
2024-01-30T00:04:14.864Z,53.35
2024-01-30T00:05:14.862Z,52.47
2024-01-30T00:06:14.857Z,52.58
2024-01-30T00:07:14.888Z,53.14
2024-01-30T00:08:14.855Z,52.41
2024-01-30T00:09:14.818Z,52.31
2024-01-30T00:10:14.840Z,52.15
2024-01-30T00:11:14.828Z,51.48
2024-01-30T00:12:14.818Z,51.02
2024-01-30T00:13:14.848Z,51.64
2024-01-30T00:14:14.843Z,50.93
2024-01-30T00:15:14.800Z,51.37
2024-01-30T00:16:14.817Z,51.85
2024-01-30T00:17:14.834Z,51.19
2024-01-30T00:18:14.856Z,51.42
2024-01-30T00:19:14.913Z,52.14
2024-01-30T00:20:14.898Z,52.04
2024-01-30T00:21:14.836Z,51.53
2024-01-30T00:22:14.932Z,52.04
2024-01-30T00:23:15.828Z,52.07
2024-01-30T00:24:14.804Z,52.06
2024-01-30T00:25:14.919Z,52.09
2024-01-30T00:26:14.776Z,51.28
2024-01-30T00:27:14.761Z,52.02
2024-01-30T00:28:14.782Z,51.37
2024-01-30T00:29:14.718Z,53.18
2024-01-30T00:30:14.698Z,50.78
2024-01-30T00:31:14.765Z,53.29
2024-01-30T00:32:14.674Z,51.95
2024-01-30T00:33:14.714Z,52.37
2024-01-30T00:34:14.723Z,52.20
2024-01-30T00:35:14.659Z,52.07
2024-01-30T00:36:14.624Z,52.21
2024-01-30T00:37:14.626Z,52.29
2024-01-30T00:38:14.559Z,52.53
2024-01-30T00:39:14.544Z,51.06
2024-01-30T00:40:14.554Z,51.62
2024-01-30T00:41:14.512Z,52.70
2024-01-30T00:42:14.490Z,51.97
2024-01-30T00:43:14.551Z,51.88
2024-01-30T00:44:14.505Z,51.36
2024-01-30T00:45:14.454Z,51.96
2024-01-30T00:46:14.486Z,52.50
2024-01-30T00:47:14.421Z,51.10
2024-01-30T00:48:14.434Z,51.33
2024-01-30T00:49:14.506Z,51.77
2024-01-30T00:50:14.447Z,51.90
2024-01-30T00:51:14.386Z,52.10
2024-01-30T00:52:14.439Z,52.22
2024-01-30T00:53:14.409Z,50.79
2024-01-30T00:54:14.417Z,51.98
2024-01-30T00:55:14.554Z,50.62
2024-01-30T00:56:14.437Z,51.75
2024-01-30T00:57:14.441Z,51.74
2024-01-30T00:58:14.515Z,51.67
2024-01-30T00:59:14.451Z,51.71
2024-01-30T01:00:14.462Z,51.79
2024-01-30T01:01:14.656Z,52.96
2024-01-30T01:02:14.466Z,51.94
2024-01-30T01:03:14.511Z,52.99
2024-01-30T01:04:14.516Z,51.69
2024-01-30T01:05:14.486Z,52.38
2024-01-30T01:06:14.491Z,52.33
2024-01-30T01:07:14.546Z,51.99
2024-01-30T01:08:14.525Z,51.52
2024-01-30T01:09:14.522Z,51.91
2024-01-30T01:10:14.687Z,52.67
2024-01-30T01:11:14.529Z,51.26
2024-01-30T01:12:14.543Z,51.54
2024-01-30T01:13:14.731Z,51.76
2024-01-30T01:14:14.578Z,50.39
2024-01-30T01:15:14.546Z,51.12
2024-01-30T01:16:14.648Z,50.67
2024-01-30T01:17:14.580Z,51.40
2024-01-30T01:18:14.588Z,51.38
2024-01-30T01:19:14.693Z,50.63
2024-01-30T01:20:14.605Z,50.00
2024-01-30T01:21:14.615Z,51.15
2024-01-30T01:22:14.660Z,52.33
2024-01-30T01:23:14.648Z,51.48
2024-01-30T01:24:14.649Z,51.36
2024-01-30T01:25:14.728Z,52.04
2024-01-30T01:26:14.669Z,53.01
2024-01-30T01:27:14.681Z,51.29
2024-01-30T01:28:14.777Z,51.27
2024-01-30T01:29:14.697Z,51.20
2024-01-30T01:30:14.742Z,51.73
2024-01-30T01:31:14.729Z,51.32
2024-01-30T01:32:14.740Z,50.36
2024-01-30T01:33:14.899Z,51.61
2024-01-30T01:34:14.992Z,52.91
2024-01-30T01:35:14.886Z,51.46
2024-01-30T01:36:14.897Z,51.55
2024-01-30T01:37:14.857Z,52.98
2024-01-30T01:38:14.792Z,50.80
2024-01-30T01:39:14.812Z,52.04
2024-01-30T01:40:14.868Z,51.05
2024-01-30T01:41:14.825Z,51.06
2024-01-30T01:42:14.842Z,51.87
2024-01-30T01:43:14.892Z,51.44
2024-01-30T01:44:14.859Z,51.36
2024-01-30T01:45:14.859Z,51.38
2024-01-30T01:46:14.890Z,52.41
2024-01-30T01:47:14.901Z,52.61
2024-01-30T01:48:14.963Z,51.11
2024-01-30T01:49:14.975Z,52.02
2024-01-30T01:50:15.043Z,51.35
2024-01-30T01:51:14.995Z,50.87
2024-01-30T01:52:14.973Z,51.50
2024-01-30T01:53:14.965Z,51.71
2024-01-30T01:54:14.954Z,51.45
2024-01-30T01:55:15.079Z,53.10
2024-01-30T01:56:15.006Z,52.59
2024-01-30T01:57:14.974Z,51.54
2024-01-30T01:58:15.107Z,51.35
2024-01-30T01:59:15.003Z,51.39
2024-01-30T02:00:15.015Z,52.77
2024-01-30T02:01:15.095Z,52.00
2024-01-30T02:02:15.066Z,52.50
2024-01-30T02:03:15.064Z,50.87
2024-01-30T02:04:15.130Z,50.00
2024-01-30T02:05:15.092Z,51.81
2024-01-30T02:06:15.100Z,51.06
2024-01-30T02:07:15.187Z,51.80
2024-01-30T02:08:15.447Z,52.09
2024-01-30T02:09:15.143Z,51.25
2024-01-30T02:10:15.189Z,52.94
2024-01-30T02:11:15.170Z,51.92
2024-01-30T02:12:15.170Z,51.22
2024-01-30T02:13:15.203Z,51.90
2024-01-30T02:14:15.187Z,51.11
2024-01-30T02:15:15.312Z,52.22
2024-01-30T02:16:15.254Z,52.54
2024-01-30T02:17:15.213Z,51.77
2024-01-30T02:18:15.246Z,51.53
2024-01-30T02:19:15.288Z,51.24
2024-01-30T02:20:15.374Z,51.46
2024-01-30T02:21:15.238Z,50.93
2024-01-30T02:22:15.265Z,51.03
2024-01-30T02:23:15.262Z,52.65
2024-01-30T02:24:15.287Z,51.29
2024-01-30T02:25:15.331Z,51.04
2024-01-30T02:26:15.304Z,50.72
2024-01-30T02:27:15.321Z,50.77
2024-01-30T02:28:15.386Z,51.02
2024-01-30T02:29:15.344Z,51.11
2024-01-30T02:30:15.352Z,51.58
2024-01-30T02:31:15.462Z,50.37
2024-01-30T02:32:15.392Z,51.47
2024-01-30T02:33:15.466Z,51.82
2024-01-30T02:34:15.465Z,51.01
2024-01-30T02:35:15.513Z,50.38
2024-01-30T02:36:15.413Z,50.97
2024-01-30T02:37:15.460Z,51.55
2024-01-30T02:38:15.439Z,50.71
2024-01-30T02:39:15.442Z,50.31
2024-01-30T02:40:15.519Z,50.95
2024-01-30T02:41:15.487Z,50.46
2024-01-30T02:42:15.483Z,50.93
2024-01-30T02:43:15.613Z,51.70
2024-01-30T02:44:15.490Z,51.99
2024-01-30T02:45:15.501Z,50.76
2024-01-30T02:46:15.617Z,51.42
2024-01-30T02:47:15.511Z,50.85
2024-01-30T02:48:15.609Z,51.56
2024-01-30T02:49:15.785Z,50.86
2024-01-30T02:50:15.602Z,50.72
2024-01-30T02:51:15.569Z,51.04
2024-01-30T02:52:15.662Z,51.42
2024-01-30T02:53:15.616Z,51.90
2024-01-30T02:54:15.623Z,52.90
2024-01-30T02:55:15.639Z,52.65
2024-01-30T02:56:15.586Z,50.65
2024-01-30T02:57:15.586Z,52.35
2024-01-30T02:58:15.655Z,52.03
2024-01-30T02:59:15.594Z,50.51
2024-01-30T03:00:15.607Z,52.02
2024-01-30T03:01:15.823Z,51.63
2024-01-30T03:02:15.608Z,52.27
2024-01-30T03:03:15.673Z,52.17
2024-01-30T03:04:15.801Z,51.01
2024-01-30T03:05:15.645Z,51.16
2024-01-30T03:06:15.658Z,51.72
2024-01-30T03:07:15.816Z,51.56
2024-01-30T03:08:15.891Z,51.27
2024-01-30T03:09:15.672Z,51.71
2024-01-30T03:10:15.778Z,51.66
2024-01-30T03:11:15.689Z,50.54
2024-01-30T03:12:15.712Z,50.87
2024-01-30T03:13:15.808Z,51.21
2024-01-30T03:14:15.717Z,52.11
2024-01-30T03:15:15.736Z,50.88
2024-01-30T03:16:15.799Z,50.75
2024-01-30T03:17:15.746Z,50.00
2024-01-30T03:18:15.814Z,51.96
2024-01-30T03:19:15.830Z,53.13
2024-01-30T03:20:15.777Z,51.32
2024-01-30T03:21:15.797Z,51.49
2024-01-30T03:22:15.850Z,50.85
2024-01-30T03:23:15.822Z,51.36
2024-01-30T03:24:15.815Z,50.79
2024-01-30T03:25:15.943Z,51.27
2024-01-30T03:26:15.853Z,51.44
2024-01-30T03:27:15.869Z,51.76
2024-01-30T03:28:15.936Z,50.11
2024-01-30T03:29:15.912Z,50.36
2024-01-30T03:30:15.925Z,51.77
2024-01-30T03:31:15.961Z,50.92
2024-01-30T03:32:15.956Z,51.86
2024-01-30T03:33:16.004Z,51.67
2024-01-30T03:34:16.118Z,51.57
2024-01-30T03:35:15.991Z,50.00
2024-01-30T03:36:16.002Z,52.04
2024-01-30T03:37:16.054Z,50.97
2024-01-30T03:38:16.045Z,51.87
2024-01-30T03:39:16.037Z,50.99
2024-01-30T03:40:16.124Z,50.68
2024-01-30T03:41:16.075Z,50.99
2024-01-30T03:42:16.083Z,50.91
2024-01-30T03:43:16.182Z,52.00
2024-01-30T03:44:16.112Z,52.85
2024-01-30T03:45:16.115Z,50.81
2024-01-30T03:46:16.148Z,51.77
2024-01-30T03:47:16.142Z,52.03
2024-01-30T03:48:16.141Z,51.45
2024-01-30T03:49:16.469Z,50.23
2024-01-30T03:50:16.204Z,51.13
2024-01-30T03:51:16.177Z,51.31
2024-01-30T03:52:16.244Z,51.38
2024-01-30T03:53:16.206Z,51.04
2024-01-30T03:54:16.209Z,50.08
2024-01-30T03:55:16.370Z,52.01
2024-01-30T03:56:16.282Z,51.68
2024-01-30T03:57:16.275Z,50.83
2024-01-30T03:58:16.356Z,51.00
2024-01-30T03:59:16.274Z,51.25
2024-01-30T04:00:16.332Z,50.07
2024-01-30T04:01:16.488Z,51.62
2024-01-30T04:02:16.439Z,52.11
2024-01-30T04:03:16.327Z,50.89
2024-01-30T04:04:16.450Z,50.97
2024-01-30T04:05:16.360Z,50.11
2024-01-30T04:06:16.378Z,51.49
2024-01-30T04:07:16.466Z,51.35
2024-01-30T04:08:16.383Z,50.80
2024-01-30T04:09:16.390Z,52.21
2024-01-30T04:10:16.451Z,52.28
2024-01-30T04:11:16.400Z,52.63
2024-01-30T04:12:16.409Z,51.49
2024-01-30T04:13:16.488Z,51.98
2024-01-30T04:14:16.425Z,52.13
2024-01-30T04:15:16.437Z,51.43
2024-01-30T04:16:16.490Z,51.22
2024-01-30T04:17:16.459Z,51.26
2024-01-30T04:18:16.483Z,51.18
2024-01-30T04:19:16.540Z,51.49
2024-01-30T04:20:16.518Z,51.40
2024-01-30T04:21:16.451Z,51.19
2024-01-30T04:22:16.523Z,51.28
2024-01-30T04:23:16.445Z,52.40
2024-01-30T04:24:16.446Z,52.53
2024-01-30T04:25:16.504Z,52.53
2024-01-30T04:26:16.439Z,53.85
2024-01-30T04:27:16.436Z,53.16
2024-01-30T04:28:16.489Z,52.55
2024-01-30T04:29:16.424Z,52.50
2024-01-30T04:30:16.417Z,52.73
2024-01-30T04:31:16.457Z,53.79
2024-01-30T04:32:16.442Z,50.84
2024-01-30T04:33:16.502Z,50.43
2024-01-30T04:34:16.559Z,51.59
2024-01-30T04:35:16.581Z,52.65
2024-01-30T04:36:16.496Z,52.18
2024-01-30T04:37:16.534Z,51.93
2024-01-30T04:38:16.493Z,53.21
2024-01-30T04:39:16.492Z,53.65
2024-01-30T04:40:16.546Z,50.59
2024-01-30T04:41:16.514Z,54.47
2024-01-30T04:42:16.561Z,50.92
2024-01-30T04:43:16.640Z,53.40
2024-01-30T04:44:16.548Z,51.07
2024-01-30T04:45:16.557Z,55.19
2024-01-30T04:46:16.575Z,54.43
2024-01-30T04:47:16.546Z,54.07
2024-01-30T04:48:16.679Z,55.22
2024-01-30T04:49:16.626Z,56.00
2024-01-30T04:50:16.558Z,54.57
2024-01-30T04:51:16.572Z,56.24
2024-01-30T04:52:16.643Z,56.06
2024-01-30T04:53:16.617Z,54.20
2024-01-30T04:54:16.611Z,56.71
2024-01-30T04:55:17.254Z,55.25
2024-01-30T04:56:16.628Z,55.30
2024-01-30T04:57:16.701Z,55.56
2024-01-30T04:58:16.786Z,55.87
2024-01-30T04:59:16.833Z,52.95
2024-01-30T05:00:16.821Z,57.61
2024-01-30T05:01:24.240Z,50.00
2024-01-30T05:02:24.186Z,50.00
2024-01-30T05:03:24.263Z,50.00
2024-01-30T05:04:24.249Z,50.00
2024-01-30T05:05:24.178Z,50.00
2024-01-30T05:06:24.169Z,53.18
2024-01-30T05:07:24.247Z,50.00
2024-01-30T05:08:24.251Z,55.90
2024-01-30T05:09:24.199Z,52.91
2024-01-30T05:10:24.228Z,54.52
2024-01-30T05:11:24.192Z,50.48
2024-01-30T05:12:24.244Z,57.34
2024-01-30T05:13:24.230Z,58.17
2024-01-30T05:14:24.206Z,55.18
2024-01-30T05:15:24.190Z,51.12
2024-01-30T05:16:24.320Z,55.33
2024-01-30T05:17:24.209Z,54.42
2024-01-30T05:18:24.256Z,57.72
2024-01-30T05:19:24.407Z,52.33
2024-01-30T05:20:24.194Z,53.70
2024-01-30T05:21:24.211Z,56.48
2024-01-30T05:22:24.328Z,55.57
2024-01-30T05:23:24.215Z,56.15
2024-01-30T05:24:26.756Z,56.02
2024-01-30T05:25:24.306Z,55.71
2024-01-30T05:26:24.364Z,55.86
2024-01-30T05:27:24.223Z,56.34
2024-01-30T05:28:24.250Z,51.35
2024-01-30T05:29:24.210Z,52.87
2024-01-30T05:30:24.214Z,57.90
2024-01-30T05:31:24.271Z,58.24
2024-01-30T05:32:24.366Z,52.50
2024-01-30T05:33:24.352Z,52.91
2024-01-30T05:34:24.281Z,50.64
2024-01-30T05:35:24.232Z,56.50
2024-01-30T05:36:24.252Z,57.25
2024-01-30T05:37:24.349Z,56.89
2024-01-30T05:38:24.266Z,59.27
2024-01-30T05:39:24.253Z,51.33
2024-01-30T05:40:24.299Z,58.95
2024-01-30T05:41:24.266Z,57.63
2024-01-30T05:42:24.259Z,56.92
2024-01-30T05:43:24.273Z,52.22
2024-01-30T05:44:24.266Z,58.07
2024-01-30T05:45:24.265Z,52.77
2024-01-30T05:46:25.860Z,59.05
2024-01-30T05:47:24.285Z,54.73
2024-01-30T05:48:24.266Z,55.07
2024-01-30T05:49:24.334Z,60.07
2024-01-30T05:50:24.281Z,56.70
2024-01-30T05:51:24.323Z,56.25
2024-01-30T05:52:24.306Z,57.05
2024-01-30T05:53:24.292Z,57.52
2024-01-30T05:54:24.292Z,57.91
2024-01-30T05:55:24.448Z,59.46
2024-01-30T05:56:24.399Z,55.82
2024-01-30T05:57:24.465Z,60.03
2024-01-30T05:58:24.563Z,58.03
2024-01-30T05:59:24.588Z,55.67
2024-01-30T06:00:24.613Z,57.68
2024-01-30T06:01:24.750Z,55.13
2024-01-30T06:02:24.749Z,58.01
2024-01-30T06:03:24.854Z,52.92
2024-01-30T06:04:25.102Z,57.27
2024-01-30T06:05:24.992Z,59.17
2024-01-30T06:06:25.009Z,54.96
2024-01-30T06:07:25.189Z,56.04
2024-01-30T06:08:25.103Z,56.83
2024-01-30T06:09:25.161Z,60.00
2024-01-30T06:10:25.306Z,57.34
2024-01-30T06:11:25.273Z,58.15
2024-01-30T06:12:25.336Z,57.79
2024-01-30T06:13:25.531Z,53.93
2024-01-30T06:14:25.505Z,57.17
2024-01-30T06:15:25.502Z,58.95
2024-01-30T06:16:25.604Z,57.86
2024-01-30T06:17:25.598Z,55.14
2024-01-30T06:18:25.651Z,55.46
2024-01-30T06:19:25.845Z,53.37
2024-01-30T06:20:25.808Z,55.07
2024-01-30T06:21:25.787Z,54.32
2024-01-30T06:22:25.910Z,55.02
2024-01-30T06:23:25.914Z,54.18
2024-01-30T06:24:25.973Z,54.83
2024-01-30T06:25:26.050Z,59.85
2024-01-30T06:26:26.097Z,56.18
2024-01-30T06:27:26.148Z,54.68
2024-01-30T06:28:26.243Z,57.04
2024-01-30T06:29:26.288Z,56.18
2024-01-30T06:30:26.330Z,54.97
2024-01-30T06:31:26.512Z,63.94
2024-01-30T06:32:26.423Z,68.72
2024-01-30T06:33:26.521Z,61.84
2024-01-30T06:34:26.531Z,64.46
2024-01-30T06:35:26.508Z,68.91
2024-01-30T06:36:26.506Z,73.76
2024-01-30T06:37:26.555Z,73.12
2024-01-30T06:38:26.526Z,74.65
2024-01-30T06:39:26.528Z,78.10
2024-01-30T06:40:26.618Z,83.11
2024-01-30T06:41:26.549Z,84.40
2024-01-30T06:42:26.600Z,86.07
2024-01-30T06:43:26.751Z,90.83
2024-01-30T06:44:26.828Z,93.64
2024-01-30T06:45:26.830Z,98.42
2024-01-30T06:46:26.987Z,103.38
2024-01-30T06:47:26.968Z,105.91
2024-01-30T06:48:26.912Z,111.26
2024-01-30T06:49:27.234Z,116.28
2024-01-30T06:50:27.214Z,118.82
2024-01-30T06:51:27.089Z,123.88
2024-01-30T06:52:27.149Z,129.91
2024-01-30T06:53:27.169Z,131.99
2024-01-30T06:54:27.215Z,136.43
2024-01-30T06:55:27.390Z,142.11
2024-01-30T06:56:27.309Z,146.43
2024-01-30T06:57:27.361Z,150.73
2024-01-30T06:58:27.550Z,156.45
2024-01-30T06:59:27.427Z,159.59
2024-01-30T07:00:27.451Z,165.66
2024-01-30T07:01:27.540Z,169.09
2024-01-30T07:02:27.524Z,169.66
2024-01-30T07:03:27.575Z,173.03
2024-01-30T07:04:27.614Z,179.05
2024-01-30T07:05:27.574Z,185.64
2024-01-30T07:06:27.640Z,188.11
2024-01-30T07:07:27.693Z,190.43
2024-01-30T07:08:27.639Z,197.46
2024-01-30T07:09:27.667Z,197.80
2024-01-30T07:10:27.863Z,199.50
2024-01-30T07:11:27.781Z,200.00
2024-01-30T07:12:27.776Z,198.49
2024-01-30T07:13:27.897Z,200.00
2024-01-30T07:14:27.844Z,199.15
2024-01-30T07:15:27.856Z,200.00
2024-01-30T07:16:27.898Z,200.00
2024-01-30T07:17:27.916Z,199.72
2024-01-30T07:18:27.909Z,199.38
2024-01-30T07:19:28.040Z,200.00
2024-01-30T07:20:28.149Z,199.98
2024-01-30T07:21:27.987Z,199.39
2024-01-30T07:22:28.167Z,200.00
2024-01-30T07:23:28.036Z,200.00
2024-01-30T07:24:28.067Z,199.52
2024-01-30T07:25:30.973Z,197.70
2024-01-30T07:26:30.866Z,194.98
2024-01-30T07:27:28.824Z,194.85
2024-01-30T07:28:28.099Z,192.43
2024-01-30T07:29:28.030Z,184.14
2024-01-30T07:30:28.013Z,180.22
2024-01-30T07:31:29.612Z,174.83
2024-01-30T07:32:28.010Z,168.29
2024-01-30T07:33:27.980Z,161.09
2024-01-30T07:34:28.043Z,157.06
2024-01-30T07:35:27.985Z,155.01
2024-01-30T07:36:27.909Z,149.91
2024-01-30T07:37:27.966Z,142.29
2024-01-30T07:38:27.889Z,136.14
2024-01-30T07:39:27.879Z,127.50
2024-01-30T07:40:28.034Z,120.32
2024-01-30T07:41:27.883Z,117.18
2024-01-30T07:42:27.882Z,113.27
2024-01-30T07:43:27.964Z,108.04
2024-01-30T07:44:27.878Z,105.60
2024-01-30T07:45:27.863Z,100.48
2024-01-30T07:46:27.990Z,97.67
2024-01-30T07:47:27.866Z,95.63
2024-01-30T07:48:27.855Z,91.36
2024-01-30T07:49:27.916Z,84.25
2024-01-30T07:50:27.888Z,84.03
2024-01-30T07:51:27.820Z,81.90
2024-01-30T07:52:27.863Z,77.95
2024-01-30T07:53:27.782Z,75.88
2024-01-30T07:54:27.777Z,74.83
2024-01-30T07:55:27.797Z,74.48
2024-01-30T07:56:27.738Z,76.63
2024-01-30T07:57:27.729Z,77.48
2024-01-30T07:58:27.715Z,77.04
2024-01-30T07:59:27.664Z,77.72
2024-01-30T08:00:27.830Z,79.13
2024-01-30T08:01:27.780Z,80.03
2024-01-30T08:02:27.654Z,79.90
2024-01-30T08:03:27.642Z,81.66
2024-01-30T08:04:27.789Z,81.65
2024-01-30T08:05:27.816Z,85.10
2024-01-30T08:06:27.504Z,83.92
2024-01-30T08:07:27.592Z,85.34
2024-01-30T08:08:27.455Z,87.79
2024-01-30T08:09:27.424Z,87.31
2024-01-30T08:10:27.563Z,88.58
2024-01-30T08:11:27.382Z,90.21
2024-01-30T08:12:27.334Z,92.29
2024-01-30T08:13:27.371Z,92.13
2024-01-30T08:14:27.282Z,95.27
2024-01-30T08:15:27.270Z,96.55
2024-01-30T08:16:27.268Z,97.14
2024-01-30T08:17:27.357Z,101.08
2024-01-30T08:18:27.235Z,100.86
2024-01-30T08:19:27.243Z,101.25
2024-01-30T08:20:27.185Z,104.81
2024-01-30T08:21:27.230Z,105.07
2024-01-30T08:22:27.396Z,105.23
2024-01-30T08:23:27.322Z,108.58
2024-01-30T08:24:27.363Z,109.99
2024-01-30T08:25:27.482Z,106.10
2024-01-30T08:26:27.448Z,101.83
2024-01-30T08:27:27.512Z,101.73
2024-01-30T08:28:27.624Z,98.33
2024-01-30T08:29:27.614Z,96.31
2024-01-30T08:30:27.607Z,95.47
2024-01-30T08:31:27.730Z,96.93
2024-01-30T08:32:27.722Z,96.96
2024-01-30T08:33:27.732Z,97.42
2024-01-30T08:34:28.409Z,97.62
2024-01-30T08:35:27.908Z,98.03
2024-01-30T08:36:27.801Z,99.38
2024-01-30T08:37:27.855Z,100.41
2024-01-30T08:38:27.845Z,102.45
2024-01-30T08:39:27.870Z,103.93
2024-01-30T08:40:27.984Z,104.63
2024-01-30T08:41:27.943Z,104.86
2024-01-30T08:42:27.918Z,108.31
2024-01-30T08:43:28.023Z,109.13
2024-01-30T08:44:28.016Z,110.11
2024-01-30T08:45:27.943Z,112.69
2024-01-30T08:46:28.108Z,114.25
2024-01-30T08:47:28.077Z,115.05
2024-01-30T08:48:28.012Z,116.07
2024-01-30T08:49:28.042Z,118.19
2024-01-30T08:50:27.949Z,119.40
2024-01-30T08:51:27.919Z,122.76
2024-01-30T08:52:28.043Z,122.29
2024-01-30T08:53:27.925Z,124.87
2024-01-30T08:54:27.891Z,127.65
2024-01-30T08:55:28.976Z,127.70
2024-01-30T08:56:27.837Z,128.20
2024-01-30T08:57:27.845Z,129.37
2024-01-30T08:58:27.819Z,132.66
2024-01-30T08:59:27.732Z,137.25
2024-01-30T09:00:27.709Z,137.66
2024-01-30T09:01:27.744Z,137.93
2024-01-30T09:02:27.810Z,141.07
2024-01-30T09:03:27.639Z,141.62
2024-01-30T09:04:27.641Z,140.00
2024-01-30T09:05:27.549Z,144.43
2024-01-30T09:06:27.505Z,143.15
2024-01-30T09:07:27.530Z,144.95
2024-01-30T09:08:27.475Z,145.11
2024-01-30T09:09:27.422Z,145.94
2024-01-30T09:10:27.470Z,154.23
2024-01-30T09:11:27.366Z,157.57
2024-01-30T09:12:27.791Z,165.32
2024-01-30T09:13:27.825Z,162.23
2024-01-30T09:14:27.291Z,158.45
2024-01-30T09:15:27.297Z,157.84
2024-01-30T09:16:27.364Z,152.25
2024-01-30T09:17:27.250Z,149.74
2024-01-30T09:18:27.341Z,145.84
2024-01-30T09:19:27.450Z,140.06
2024-01-30T09:20:27.347Z,134.18
2024-01-30T09:21:28.309Z,128.55
2024-01-30T09:22:27.511Z,125.88
2024-01-30T09:23:27.410Z,126.38
2024-01-30T09:24:27.435Z,121.07
2024-01-30T09:25:27.508Z,116.80
2024-01-30T09:26:27.433Z,109.90
2024-01-30T09:27:27.454Z,102.49
2024-01-30T09:28:28.526Z,98.20
2024-01-30T09:29:27.548Z,95.42
2024-01-30T09:30:27.461Z,90.86
2024-01-30T09:31:28.980Z,89.29
2024-01-30T09:32:27.485Z,86.57
2024-01-30T09:33:27.466Z,81.60
2024-01-30T09:34:27.624Z,80.98
2024-01-30T09:35:27.643Z,79.38
2024-01-30T09:36:27.488Z,79.30
2024-01-30T09:37:27.940Z,76.22
2024-01-30T09:38:27.459Z,77.22
2024-01-30T09:39:27.455Z,74.58
2024-01-30T09:40:27.501Z,75.21
2024-01-30T09:41:27.430Z,75.32
2024-01-30T09:42:27.433Z,75.57
2024-01-30T09:43:27.778Z,74.43
2024-01-30T09:44:27.418Z,75.02
2024-01-30T09:45:28.308Z,73.90
2024-01-30T09:46:27.448Z,72.67
2024-01-30T09:47:27.518Z,73.72
2024-01-30T09:48:27.376Z,73.02
2024-01-30T09:49:27.411Z,73.10
2024-01-30T09:50:27.367Z,72.60
2024-01-30T09:51:27.339Z,72.77
2024-01-30T09:52:27.367Z,70.55
2024-01-30T09:53:27.370Z,74.44
2024-01-30T09:54:27.890Z,72.31
2024-01-30T09:55:27.405Z,72.54
2024-01-30T09:56:27.301Z,72.44
2024-01-30T09:57:27.289Z,72.47
2024-01-30T09:58:27.331Z,73.08
2024-01-30T09:59:27.260Z,72.35
2024-01-30T10:00:27.354Z,72.36
2024-01-30T10:01:27.297Z,72.63
2024-01-30T10:02:27.890Z,72.88
2024-01-30T10:03:27.230Z,71.40
2024-01-30T10:04:27.300Z,72.23
2024-01-30T10:05:27.812Z,71.75
2024-01-30T10:06:27.205Z,71.96
2024-01-30T10:07:27.939Z,71.53
2024-01-30T10:08:27.177Z,72.22
2024-01-30T10:09:27.180Z,72.19
2024-01-30T10:10:27.242Z,71.65
2024-01-30T10:11:27.152Z,71.07
2024-01-30T10:12:27.146Z,72.66
2024-01-30T10:13:27.354Z,72.01
2024-01-30T10:14:27.123Z,69.85
2024-01-30T10:15:27.127Z,72.15
2024-01-30T10:16:27.361Z,70.80
2024-01-30T10:17:32.591Z,69.73
2024-01-30T10:18:28.095Z,69.81
2024-01-30T10:19:27.191Z,69.89
2024-01-30T10:20:27.191Z,71.02
2024-01-30T10:21:27.042Z,71.23
2024-01-30T10:22:27.960Z,70.21
2024-01-30T10:23:27.195Z,68.43
2024-01-30T10:24:26.992Z,67.75
2024-01-30T10:25:26.999Z,69.47
2024-01-30T10:26:26.955Z,74.26
2024-01-30T10:27:26.934Z,76.13
2024-01-30T10:28:26.966Z,75.95
2024-01-30T10:29:26.871Z,80.13
2024-01-30T10:30:26.843Z,82.11
2024-01-30T10:31:26.890Z,83.94
2024-01-30T10:32:26.841Z,90.13
2024-01-30T10:33:26.836Z,89.60
2024-01-30T10:34:26.853Z,94.47
2024-01-30T10:35:26.817Z,95.63
2024-01-30T10:36:26.740Z,98.44
2024-01-30T10:37:26.811Z,102.58
2024-01-30T10:38:26.690Z,103.12
2024-01-30T10:39:26.682Z,107.86
2024-01-30T10:40:26.659Z,109.75
2024-01-30T10:41:26.599Z,110.94
2024-01-30T10:42:26.576Z,113.86
2024-01-30T10:43:26.624Z,116.44
2024-01-30T10:44:26.554Z,118.67
2024-01-30T10:45:26.496Z,121.31
2024-01-30T10:46:26.492Z,121.68
2024-01-30T10:47:26.490Z,122.17
2024-01-30T10:48:26.509Z,126.22
2024-01-30T10:49:26.440Z,128.38
2024-01-30T10:50:26.439Z,131.67
2024-01-30T10:51:26.324Z,134.45
2024-01-30T10:52:26.381Z,136.29
2024-01-30T10:53:28.925Z,136.37
2024-01-30T10:54:26.241Z,136.46
2024-01-30T10:55:26.293Z,137.40
2024-01-30T10:56:26.187Z,140.13
2024-01-30T10:57:26.194Z,142.95
2024-01-30T10:58:26.173Z,146.82
2024-01-30T10:59:26.100Z,147.61
2024-01-30T11:00:26.084Z,152.45
2024-01-30T11:01:26.214Z,154.08
2024-01-30T11:02:26.030Z,157.42
2024-01-30T11:03:25.995Z,156.59
2024-01-30T11:04:25.991Z,158.81
2024-01-30T11:05:27.502Z,160.52
2024-01-30T11:06:25.980Z,160.57
2024-01-30T11:07:25.896Z,161.07
2024-01-30T11:08:25.902Z,162.77
2024-01-30T11:09:25.849Z,166.59
2024-01-30T11:10:25.854Z,170.96
2024-01-30T11:11:25.755Z,172.41
2024-01-30T11:12:25.840Z,175.20
2024-01-30T11:13:25.767Z,176.06
2024-01-30T11:14:25.686Z,178.32
2024-01-30T11:15:25.664Z,176.81
2024-01-30T11:16:26.712Z,176.98
2024-01-30T11:17:25.625Z,177.52
2024-01-30T11:18:25.629Z,178.47
2024-01-30T11:19:25.651Z,179.57
2024-01-30T11:20:25.553Z,183.05
2024-01-30T11:21:25.533Z,182.46
2024-01-30T11:22:25.628Z,183.28
2024-01-30T11:23:25.489Z,183.26
2024-01-30T11:24:25.529Z,181.83
2024-01-30T11:25:25.511Z,182.94
2024-01-30T11:26:25.430Z,182.20
2024-01-30T11:27:29.346Z,182.79
2024-01-30T11:28:25.415Z,182.91
2024-01-30T11:29:25.371Z,183.00
2024-01-30T11:30:25.387Z,183.14
2024-01-30T11:31:25.347Z,184.35
2024-01-30T11:32:25.360Z,185.87
2024-01-30T11:33:25.417Z,185.02
2024-01-30T11:34:25.577Z,183.61
2024-01-30T11:35:25.267Z,184.25
2024-01-30T11:36:26.250Z,184.39
2024-01-30T11:37:25.306Z,184.41
2024-01-30T11:38:25.201Z,184.34
2024-01-30T11:39:25.181Z,183.70
2024-01-30T11:40:25.209Z,183.91
2024-01-30T11:41:25.144Z,185.44
2024-01-30T11:42:25.126Z,185.67
2024-01-30T11:43:25.166Z,186.28
2024-01-30T11:44:25.083Z,182.99
2024-01-30T11:45:25.079Z,184.77
2024-01-30T11:46:25.163Z,183.77
2024-01-30T11:47:25.194Z,184.11
2024-01-30T11:48:25.340Z,183.50
2024-01-30T11:49:25.478Z,182.04
2024-01-30T11:50:25.309Z,184.03
2024-01-30T11:51:25.353Z,184.18
2024-01-30T11:52:25.492Z,183.69
2024-01-30T11:53:25.443Z,181.37
2024-01-30T11:54:25.498Z,182.51
2024-01-30T11:55:26.006Z,182.35
2024-01-30T11:56:25.589Z,181.75
2024-01-30T11:57:25.663Z,182.62
2024-01-30T11:58:25.741Z,182.64
2024-01-30T11:59:25.730Z,183.50
2024-01-30T12:00:25.765Z,180.22
2024-01-30T12:01:26.735Z,181.77
2024-01-30T12:02:25.853Z,181.56
2024-01-30T12:03:25.909Z,181.60
2024-01-30T12:04:26.004Z,178.68
2024-01-30T12:05:26.931Z,179.36
2024-01-30T12:06:26.135Z,175.93
2024-01-30T12:07:26.064Z,176.04
2024-01-30T12:08:26.053Z,173.40
2024-01-30T12:09:26.058Z,172.23
2024-01-30T12:10:26.121Z,168.58
2024-01-30T12:11:26.139Z,170.23
2024-01-30T12:12:26.143Z,167.11
2024-01-30T12:13:27.578Z,165.85
2024-01-30T12:14:26.152Z,166.77
2024-01-30T12:15:26.183Z,164.82
2024-01-30T12:16:26.164Z,161.91
2024-01-30T12:17:26.099Z,163.32
2024-01-30T12:18:26.093Z,162.55
2024-01-30T12:19:26.279Z,160.33
2024-01-30T12:20:26.118Z,160.23
2024-01-30T12:21:26.051Z,159.76
2024-01-30T12:22:26.074Z,159.20
2024-01-30T12:23:26.013Z,157.02
2024-01-30T12:24:26.002Z,158.79
2024-01-30T12:25:26.013Z,155.29
2024-01-30T12:26:25.967Z,156.45
2024-01-30T12:27:25.976Z,155.79
2024-01-30T12:28:25.993Z,153.77
2024-01-30T12:29:27.566Z,155.99
2024-01-30T12:30:25.922Z,155.89
2024-01-30T12:31:25.944Z,155.20
2024-01-30T12:32:25.896Z,156.28
2024-01-30T12:33:26.002Z,155.01
2024-01-30T12:34:25.886Z,154.46
2024-01-30T12:35:26.990Z,154.17
2024-01-30T12:36:25.843Z,154.21
2024-01-30T12:37:25.847Z,154.34
2024-01-30T12:38:25.801Z,154.39
2024-01-30T12:39:25.763Z,154.12
2024-01-30T12:40:25.892Z,153.64
2024-01-30T12:41:25.723Z,151.61
2024-01-30T12:42:25.710Z,153.63
2024-01-30T12:43:34.548Z,150.77
2024-01-30T12:44:26.697Z,150.95